sensor_id;sensor_type;location;lat;lon;timestamp;P1;P2;P0
77974;PMS5003;67164;51.202;0.278;2023-02-15T00:01:13;73;66;
77974;PMS5003;67164;51.202;0.278;2023-02-15T00:03:39;70;66;
77974;PMS5003;67164;51.202;0.278;2023-02-15T00:06:05;75;71;
77974;PMS5003;67164;51.202;0.278;2023-02-15T00:08:30;70;67;
77974;PMS5003;67164;51.202;0.278;2023-02-15T00:13:22;70;65;
77974;PMS5003;67164;51.202;0.278;2023-02-15T00:15:47;73;71;
77974;PMS5003;67164;51.202;0.278;2023-02-15T00:18:12;69;66;
77974;PMS5003;67164;51.202;0.278;2023-02-15T00:20:38;72;69;
77974;PMS5003;67164;51.202;0.278;2023-02-15T00:23:04;70;69;
77974;PMS5003;67164;51.202;0.278;2023-02-15T00:25:29;68;67;
77974;PMS5003;67164;51.202;0.278;2023-02-15T00:27:54;72;68;
77974;PMS5003;67164;51.202;0.278;2023-02-15T00:30:19;67;62;
77974;PMS5003;67164;51.202;0.278;2023-02-15T00:32:47;63;61;
77974;PMS5003;67164;51.202;0.278;2023-02-15T00:35:10;69;66;
77974;PMS5003;67164;51.202;0.278;2023-02-15T00:37:40;69;64;
77974;PMS5003;67164;51.202;0.278;2023-02-15T00:40:00;68;64;
77974;PMS5003;67164;51.202;0.278;2023-02-15T00:42:26;68;65;
77974;PMS5003;67164;51.202;0.278;2023-02-15T00:44:51;69;65;
77974;PMS5003;67164;51.202;0.278;2023-02-15T00:47:16;77;70;
77974;PMS5003;67164;51.202;0.278;2023-02-15T00:49:41;73;69;
77974;PMS5003;67164;51.202;0.278;2023-02-15T00:52:06;71;63;
77974;PMS5003;67164;51.202;0.278;2023-02-15T00:54:32;68;65;
77974;PMS5003;67164;51.202;0.278;2023-02-15T00:56:57;65;62;
77974;PMS5003;67164;51.202;0.278;2023-02-15T00:59:23;75;68;
77974;PMS5003;67164;51.202;0.278;2023-02-15T01:01:48;64;63;
77974;PMS5003;67164;51.202;0.278;2023-02-15T01:04:14;70;65;
77974;PMS5003;67164;51.202;0.278;2023-02-15T01:06:40;68;65;
77974;PMS5003;67164;51.202;0.278;2023-02-15T01:09:05;61;61;
77974;PMS5003;67164;51.202;0.278;2023-02-15T01:11:31;66;63;
77974;PMS5003;67164;51.202;0.278;2023-02-15T01:13:57;73;71;
77974;PMS5003;67164;51.202;0.278;2023-02-15T01:16:21;61;59;
77974;PMS5003;67164;51.202;0.278;2023-02-15T01:18:46;71;67;
77974;PMS5003;67164;51.202;0.278;2023-02-15T01:21:12;68;65;
77974;PMS5003;67164;51.202;0.278;2023-02-15T01:23:37;73;66;
77974;PMS5003;67164;51.202;0.278;2023-02-15T01:26:02;64;62;
77974;PMS5003;67164;51.202;0.278;2023-02-15T01:28:27;64;60;
77974;PMS5003;67164;51.202;0.278;2023-02-15T01:30:53;66;62;
77974;PMS5003;67164;51.202;0.278;2023-02-15T01:33:18;65;65;
77974;PMS5003;67164;51.202;0.278;2023-02-15T01:35:44;68;64;
77974;PMS5003;67164;51.202;0.278;2023-02-15T01:38:09;69;65;
77974;PMS5003;67164;51.202;0.278;2023-02-15T01:40:34;63;59;
77974;PMS5003;67164;51.202;0.278;2023-02-15T01:42:59;68;62;
77974;PMS5003;67164;51.202;0.278;2023-02-15T01:45:25;67;63;
77974;PMS5003;67164;51.202;0.278;2023-02-15T01:47:50;61;60;
77974;PMS5003;67164;51.202;0.278;2023-02-15T01:50:15;70;65;
77974;PMS5003;67164;51.202;0.278;2023-02-15T01:52:40;64;62;
77974;PMS5003;67164;51.202;0.278;2023-02-15T01:55:05;69;67;
77974;PMS5003;67164;51.202;0.278;2023-02-15T01:57:30;73;66;
77974;PMS5003;67164;51.202;0.278;2023-02-15T01:59:56;63;61;
77974;PMS5003;67164;51.202;0.278;2023-02-15T02:02:22;66;64;
77974;PMS5003;67164;51.202;0.278;2023-02-15T02:04:47;63;62;
77974;PMS5003;67164;51.202;0.278;2023-02-15T02:07:12;76;71;
77974;PMS5003;67164;51.202;0.278;2023-02-15T02:09:37;71;69;
77974;PMS5003;67164;51.202;0.278;2023-02-15T02:12:03;66;65;
77974;PMS5003;67164;51.202;0.278;2023-02-15T02:14:28;65;63;
77974;PMS5003;67164;51.202;0.278;2023-02-15T02:16:56;66;59;
77974;PMS5003;67164;51.202;0.278;2023-02-15T02:21:55;65;64;
77974;PMS5003;67164;51.202;0.278;2023-02-15T02:24:18;68;66;
77974;PMS5003;67164;51.202;0.278;2023-02-15T02:31:31;63;59;
77974;PMS5003;67164;51.202;0.278;2023-02-15T02:33:54;67;61;
77974;PMS5003;67164;51.202;0.278;2023-02-15T02:36:19;67;64;
77974;PMS5003;67164;51.202;0.278;2023-02-15T02:38:43;61;57;
77974;PMS5003;67164;51.202;0.278;2023-02-15T02:41:08;62;58;
77974;PMS5003;67164;51.202;0.278;2023-02-15T02:43:33;63;60;
77974;PMS5003;67164;51.202;0.278;2023-02-15T02:45:59;62;59;
77974;PMS5003;67164;51.202;0.278;2023-02-15T02:48:24;62;56;
77974;PMS5003;67164;51.202;0.278;2023-02-15T02:50:49;64;58;
77974;PMS5003;67164;51.202;0.278;2023-02-15T02:53:14;65;59;
77974;PMS5003;67164;51.202;0.278;2023-02-15T02:55:40;63;61;
77974;PMS5003;67164;51.202;0.278;2023-02-15T02:58:05;64;60;
77974;PMS5003;67164;51.202;0.278;2023-02-15T03:00:31;62;58;
77974;PMS5003;67164;51.202;0.278;2023-02-15T03:02:56;59;56;
77974;PMS5003;67164;51.202;0.278;2023-02-15T03:05:22;59;58;
77974;PMS5003;67164;51.202;0.278;2023-02-15T03:07:47;65;59;
77974;PMS5003;67164;51.202;0.278;2023-02-15T03:10:12;67;63;
77974;PMS5003;67164;51.202;0.278;2023-02-15T03:12:38;63;57;
77974;PMS5003;67164;51.202;0.278;2023-02-15T03:15:04;60;58;
77974;PMS5003;67164;51.202;0.278;2023-02-15T03:17:29;64;57;
77974;PMS5003;67164;51.202;0.278;2023-02-15T03:19:54;71;61;
77974;PMS5003;67164;51.202;0.278;2023-02-15T03:22:20;66;64;
77974;PMS5003;67164;51.202;0.278;2023-02-15T03:24:48;66;61;
77974;PMS5003;67164;51.202;0.278;2023-02-15T03:27:10;62;60;
77974;PMS5003;67164;51.202;0.278;2023-02-15T03:29:35;65;59;
77974;PMS5003;67164;51.202;0.278;2023-02-15T03:32:01;66;60;
77974;PMS5003;67164;51.202;0.278;2023-02-15T03:34:25;64;63;
77974;PMS5003;67164;51.202;0.278;2023-02-15T03:36:52;63;56;
77974;PMS5003;67164;51.202;0.278;2023-02-15T03:39:18;56;56;
77974;PMS5003;67164;51.202;0.278;2023-02-15T03:41:52;66;61;
77974;PMS5003;67164;51.202;0.278;2023-02-15T03:44:08;60;59;
77974;PMS5003;67164;51.202;0.278;2023-02-15T03:46:33;66;63;
77974;PMS5003;67164;51.202;0.278;2023-02-15T03:49:00;63;58;
77974;PMS5003;67164;51.202;0.278;2023-02-15T03:51:30;64;60;
77974;PMS5003;67164;51.202;0.278;2023-02-15T03:53:49;63;59;
77974;PMS5003;67164;51.202;0.278;2023-02-15T03:56:14;57;52;
77974;PMS5003;67164;51.202;0.278;2023-02-15T03:58:40;63;57;
77974;PMS5003;67164;51.202;0.278;2023-02-15T04:01:09;63;60;
77974;PMS5003;67164;51.202;0.278;2023-02-15T04:03:31;63;58;
77974;PMS5003;67164;51.202;0.278;2023-02-15T04:05:56;54;53;
77974;PMS5003;67164;51.202;0.278;2023-02-15T04:08:21;57;52;
77974;PMS5003;67164;51.202;0.278;2023-02-15T04:10:47;58;57;
77974;PMS5003;67164;51.202;0.278;2023-02-15T04:13:12;61;57;
77974;PMS5003;67164;51.202;0.278;2023-02-15T04:15:38;55;53;
77974;PMS5003;67164;51.202;0.278;2023-02-15T04:18:03;56;55;
77974;PMS5003;67164;51.202;0.278;2023-02-15T04:20:29;53;48;
77974;PMS5003;67164;51.202;0.278;2023-02-15T04:22:54;63;57;
77974;PMS5003;67164;51.202;0.278;2023-02-15T04:25:19;55;50;
77974;PMS5003;67164;51.202;0.278;2023-02-15T04:27:46;56;51;
77974;PMS5003;67164;51.202;0.278;2023-02-15T04:30:11;59;57;
77974;PMS5003;67164;51.202;0.278;2023-02-15T04:32:36;63;58;
77974;PMS5003;67164;51.202;0.278;2023-02-15T04:35:02;58;54;
77974;PMS5003;67164;51.202;0.278;2023-02-15T04:37:27;55;55;
77974;PMS5003;67164;51.202;0.278;2023-02-15T04:39:52;61;54;
77974;PMS5003;67164;51.202;0.278;2023-02-15T04:42:18;60;58;
77974;PMS5003;67164;51.202;0.278;2023-02-15T04:44:44;55;55;
77974;PMS5003;67164;51.202;0.278;2023-02-15T04:47:09;56;55;
77974;PMS5003;67164;51.202;0.278;2023-02-15T04:49:34;54;51;
77974;PMS5003;67164;51.202;0.278;2023-02-15T04:51:59;51;51;
77974;PMS5003;67164;51.202;0.278;2023-02-15T04:54:25;54;53;
77974;PMS5003;67164;51.202;0.278;2023-02-15T04:56:50;57;57;
77974;PMS5003;67164;51.202;0.278;2023-02-15T04:59:15;57;51;
77974;PMS5003;67164;51.202;0.278;2023-02-15T05:01:41;53;50;
77974;PMS5003;67164;51.202;0.278;2023-02-15T05:04:06;58;52;
77974;PMS5003;67164;51.202;0.278;2023-02-15T05:06:32;57;53;
77974;PMS5003;67164;51.202;0.278;2023-02-15T05:08:57;56;54;
77974;PMS5003;67164;51.202;0.278;2023-02-15T05:11:23;56;53;
77974;PMS5003;67164;51.202;0.278;2023-02-15T05:13:48;60;55;
77974;PMS5003;67164;51.202;0.278;2023-02-15T05:16:13;56;51;
77974;PMS5003;67164;51.202;0.278;2023-02-15T05:18:39;57;51;
77974;PMS5003;67164;51.202;0.278;2023-02-15T05:21:04;59;56;
77974;PMS5003;67164;51.202;0.278;2023-02-15T05:23:30;55;53;
77974;PMS5003;67164;51.202;0.278;2023-02-15T05:25:55;51;48;
77974;PMS5003;67164;51.202;0.278;2023-02-15T05:28:20;48;48;
77974;PMS5003;67164;51.202;0.278;2023-02-15T05:30:46;61;58;
77974;PMS5003;67164;51.202;0.278;2023-02-15T05:33:12;56;55;
77974;PMS5003;67164;51.202;0.278;2023-02-15T05:35:37;51;51;
77974;PMS5003;67164;51.202;0.278;2023-02-15T05:38:03;49;48;
77974;PMS5003;67164;51.202;0.278;2023-02-15T05:40:28;47;45;
77974;PMS5003;67164;51.202;0.278;2023-02-15T05:42:53;56;55;
77974;PMS5003;67164;51.202;0.278;2023-02-15T05:45:19;54;53;
77974;PMS5003;67164;51.202;0.278;2023-02-15T05:47:44;54;52;
77974;PMS5003;67164;51.202;0.278;2023-02-15T05:50:10;55;52;
77974;PMS5003;67164;51.202;0.278;2023-02-15T05:52:36;53;50;
77974;PMS5003;67164;51.202;0.278;2023-02-15T05:55:01;52;52;
77974;PMS5003;67164;51.202;0.278;2023-02-15T05:57:26;54;50;
77974;PMS5003;67164;51.202;0.278;2023-02-15T05:59:51;58;57;
77974;PMS5003;67164;51.202;0.278;2023-02-15T06:02:16;60;54;
77974;PMS5003;67164;51.202;0.278;2023-02-15T06:04:41;57;51;
77974;PMS5003;67164;51.202;0.278;2023-02-15T06:07:07;51;45;
77974;PMS5003;67164;51.202;0.278;2023-02-15T06:09:33;49;49;
77974;PMS5003;67164;51.202;0.278;2023-02-15T06:11:59;53;50;
77974;PMS5003;67164;51.202;0.278;2023-02-15T06:14:24;54;54;
77974;PMS5003;67164;51.202;0.278;2023-02-15T06:16:50;54;52;
77974;PMS5003;67164;51.202;0.278;2023-02-15T06:19:16;55;51;
77974;PMS5003;67164;51.202;0.278;2023-02-15T06:21:41;51;50;
77974;PMS5003;67164;51.202;0.278;2023-02-15T06:24:08;53;48;
77974;PMS5003;67164;51.202;0.278;2023-02-15T06:26:33;55;54;
77974;PMS5003;67164;51.202;0.278;2023-02-15T06:28:58;58;53;
77974;PMS5003;67164;51.202;0.278;2023-02-15T06:31:23;53;52;
77974;PMS5003;67164;51.202;0.278;2023-02-15T06:33:49;55;54;
77974;PMS5003;67164;51.202;0.278;2023-02-15T06:36:14;58;56;
77974;PMS5003;67164;51.202;0.278;2023-02-15T06:38:39;52;50;
77974;PMS5003;67164;51.202;0.278;2023-02-15T06:41:04;56;54;
77974;PMS5003;67164;51.202;0.278;2023-02-15T06:43:30;56;50;
77974;PMS5003;67164;51.202;0.278;2023-02-15T06:45:55;50;50;
77974;PMS5003;67164;51.202;0.278;2023-02-15T06:48:21;59;54;
77974;PMS5003;67164;51.202;0.278;2023-02-15T06:50:46;51;50;
77974;PMS5003;67164;51.202;0.278;2023-02-15T06:53:12;57;52;
77974;PMS5003;67164;51.202;0.278;2023-02-15T06:55:37;58;55;
77974;PMS5003;67164;51.202;0.278;2023-02-15T06:58:03;58;53;
77974;PMS5003;67164;51.202;0.278;2023-02-15T07:00:28;54;52;
77974;PMS5003;67164;51.202;0.278;2023-02-15T07:02:54;57;54;
77974;PMS5003;67164;51.202;0.278;2023-02-15T07:05:19;52;51;
77974;PMS5003;67164;51.202;0.278;2023-02-15T07:07:45;55;52;
77974;PMS5003;67164;51.202;0.278;2023-02-15T07:10:10;49;48;
77974;PMS5003;67164;51.202;0.278;2023-02-15T07:12:36;54;49;
77974;PMS5003;67164;51.202;0.278;2023-02-15T07:15:01;56;54;
77974;PMS5003;67164;51.202;0.278;2023-02-15T07:17:26;55;52;
77974;PMS5003;67164;51.202;0.278;2023-02-15T07:19:52;49;47;
77974;PMS5003;67164;51.202;0.278;2023-02-15T07:22:17;59;53;
77974;PMS5003;67164;51.202;0.278;2023-02-15T07:24:42;53;49;
77974;PMS5003;67164;51.202;0.278;2023-02-15T07:27:08;53;52;
77974;PMS5003;67164;51.202;0.278;2023-02-15T07:29:33;53;52;
77974;PMS5003;67164;51.202;0.278;2023-02-15T07:31:59;50;47;
77974;PMS5003;67164;51.202;0.278;2023-02-15T07:34:24;57;51;
77974;PMS5003;67164;51.202;0.278;2023-02-15T07:36:50;58;54;
77974;PMS5003;67164;51.202;0.278;2023-02-15T07:39:15;49;48;
77974;PMS5003;67164;51.202;0.278;2023-02-15T07:41:40;51;48;
77974;PMS5003;67164;51.202;0.278;2023-02-15T07:44:05;49;46;
77974;PMS5003;67164;51.202;0.278;2023-02-15T07:46:31;44;44;
77974;PMS5003;67164;51.202;0.278;2023-02-15T07:48:56;52;47;
77974;PMS5003;67164;51.202;0.278;2023-02-15T07:51:21;50;46;
77974;PMS5003;67164;51.202;0.278;2023-02-15T07:53:46;51;49;
77974;PMS5003;67164;51.202;0.278;2023-02-15T07:56:12;55;50;
77974;PMS5003;67164;51.202;0.278;2023-02-15T07:58:37;62;56;
77974;PMS5003;67164;51.202;0.278;2023-02-15T08:01:02;49;47;
77974;PMS5003;67164;51.202;0.278;2023-02-15T08:03:27;54;50;
77974;PMS5003;67164;51.202;0.278;2023-02-15T08:05:55;52;47;
77974;PMS5003;67164;51.202;0.278;2023-02-15T08:08:18;53;53;
77974;PMS5003;67164;51.202;0.278;2023-02-15T08:10:43;55;52;
77974;PMS5003;67164;51.202;0.278;2023-02-15T08:13:08;49;47;
77974;PMS5003;67164;51.202;0.278;2023-02-15T08:15:34;58;48;
77974;PMS5003;67164;51.202;0.278;2023-02-15T08:17:59;53;50;
77974;PMS5003;67164;51.202;0.278;2023-02-15T08:20:24;51;51;
77974;PMS5003;67164;51.202;0.278;2023-02-15T08:22:49;50;48;
77974;PMS5003;67164;51.202;0.278;2023-02-15T08:25:15;51;47;
77974;PMS5003;67164;51.202;0.278;2023-02-15T08:27:40;47;46;
77974;PMS5003;67164;51.202;0.278;2023-02-15T08:30:06;50;45;
77974;PMS5003;67164;51.202;0.278;2023-02-15T08:32:30;45;45;
77974;PMS5003;67164;51.202;0.278;2023-02-15T08:34:56;51;46;
77974;PMS5003;67164;51.202;0.278;2023-02-15T08:37:21;51;50;
77974;PMS5003;67164;51.202;0.278;2023-02-15T08:39:46;51;47;
77974;PMS5003;67164;51.202;0.278;2023-02-15T08:42:12;50;47;
77974;PMS5003;67164;51.202;0.278;2023-02-15T08:44:37;53;48;
77974;PMS5003;67164;51.202;0.278;2023-02-15T08:47:02;49;47;
77974;PMS5003;67164;51.202;0.278;2023-02-15T08:49:28;56;52;
77974;PMS5003;67164;51.202;0.278;2023-02-15T08:51:53;57;52;
77974;PMS5003;67164;51.202;0.278;2023-02-15T08:54:19;52;49;
77974;PMS5003;67164;51.202;0.278;2023-02-15T08:56:44;52;49;
77974;PMS5003;67164;51.202;0.278;2023-02-15T08:59:12;51;46;
77974;PMS5003;67164;51.202;0.278;2023-02-15T09:01:35;48;46;
77974;PMS5003;67164;51.202;0.278;2023-02-15T09:04:00;46;42;
77974;PMS5003;67164;51.202;0.278;2023-02-15T09:06:25;51;48;
77974;PMS5003;67164;51.202;0.278;2023-02-15T09:08:50;57;52;
77974;PMS5003;67164;51.202;0.278;2023-02-15T09:11:16;57;53;
77974;PMS5003;67164;51.202;0.278;2023-02-15T09:13:41;49;47;
77974;PMS5003;67164;51.202;0.278;2023-02-15T09:16:07;44;42;
77974;PMS5003;67164;51.202;0.278;2023-02-15T09:18:32;41;39;
77974;PMS5003;67164;51.202;0.278;2023-02-15T09:23:22;41;40;
77974;PMS5003;67164;51.202;0.278;2023-02-15T09:25:48;40;38;
77974;PMS5003;67164;51.202;0.278;2023-02-15T09:28:13;38;35;
77974;PMS5003;67164;51.202;0.278;2023-02-15T09:30:39;37;34;
77974;PMS5003;67164;51.202;0.278;2023-02-15T09:33:04;41;39;
77974;PMS5003;67164;51.202;0.278;2023-02-15T09:35:30;38;37;
77974;PMS5003;67164;51.202;0.278;2023-02-15T09:37:55;33;33;
77974;PMS5003;67164;51.202;0.278;2023-02-15T09:40:21;42;40;
77974;PMS5003;67164;51.202;0.278;2023-02-15T09:42:56;41;41;
77974;PMS5003;67164;51.202;0.278;2023-02-15T09:45:16;40;37;
77974;PMS5003;67164;51.202;0.278;2023-02-15T09:47:42;34;34;
77974;PMS5003;67164;51.202;0.278;2023-02-15T09:50:04;41;41;
77974;PMS5003;67164;51.202;0.278;2023-02-15T09:52:32;39;37;
77974;PMS5003;67164;51.202;0.278;2023-02-15T09:54:57;33;32;
77974;PMS5003;67164;51.202;0.278;2023-02-15T09:57:20;37;33;
77974;PMS5003;67164;51.202;0.278;2023-02-15T09:59:44;38;36;
77974;PMS5003;67164;51.202;0.278;2023-02-15T10:02:13;36;35;
77974;PMS5003;67164;51.202;0.278;2023-02-15T10:04:39;35;33;
77974;PMS5003;67164;51.202;0.278;2023-02-15T10:07:01;36;36;
77974;PMS5003;67164;51.202;0.278;2023-02-15T10:09:28;39;37;
77974;PMS5003;67164;51.202;0.278;2023-02-15T10:11:54;37;34;
77974;PMS5003;67164;51.202;0.278;2023-02-15T10:14:18;40;40;
77974;PMS5003;67164;51.202;0.278;2023-02-15T10:16:42;40;38;
77974;PMS5003;67164;51.202;0.278;2023-02-15T10:19:08;40;35;
77974;PMS5003;67164;51.202;0.278;2023-02-15T10:21:36;38;38;
77974;PMS5003;67164;51.202;0.278;2023-02-15T10:24:02;39;36;
77974;PMS5003;67164;51.202;0.278;2023-02-15T10:26:24;33;31;
77974;PMS5003;67164;51.202;0.278;2023-02-15T10:28:49;42;40;
77974;PMS5003;67164;51.202;0.278;2023-02-15T10:31:17;37;36;
77974;PMS5003;67164;51.202;0.278;2023-02-15T10:33:39;39;35;
77974;PMS5003;67164;51.202;0.278;2023-02-15T10:36:07;37;34;
77974;PMS5003;67164;51.202;0.278;2023-02-15T10:38:31;37;34;
77974;PMS5003;67164;51.202;0.278;2023-02-15T10:40:59;38;35;
77974;PMS5003;67164;51.202;0.278;2023-02-15T10:43:23;33;31;
77974;PMS5003;67164;51.202;0.278;2023-02-15T10:45:49;36;33;
77974;PMS5003;67164;51.202;0.278;2023-02-15T10:48:15;37;34;
77974;PMS5003;67164;51.202;0.278;2023-02-15T10:50:42;41;35;
77974;PMS5003;67164;51.202;0.278;2023-02-15T10:55:30;37;36;
77974;PMS5003;67164;51.202;0.278;2023-02-15T10:57:53;36;33;
77974;PMS5003;67164;51.202;0.278;2023-02-15T11:00:18;35;34;
77974;PMS5003;67164;51.202;0.278;2023-02-15T11:02:47;37;36;
77974;PMS5003;67164;51.202;0.278;2023-02-15T11:07:35;37;34;
77974;PMS5003;67164;51.202;0.278;2023-02-15T11:10:01;34;30;
77974;PMS5003;67164;51.202;0.278;2023-02-15T11:12:24;31;31;
77974;PMS5003;67164;51.202;0.278;2023-02-15T11:14:51;33;33;
77974;PMS5003;67164;51.202;0.278;2023-02-15T11:17:16;34;34;
77974;PMS5003;67164;51.202;0.278;2023-02-15T11:19:41;35;34;
77974;PMS5003;67164;51.202;0.278;2023-02-15T11:22:06;41;37;
77974;PMS5003;67164;51.202;0.278;2023-02-15T11:24:33;37;37;
77974;PMS5003;67164;51.202;0.278;2023-02-15T11:26:59;40;37;
77974;PMS5003;67164;51.202;0.278;2023-02-15T11:29:25;38;34;
77974;PMS5003;67164;51.202;0.278;2023-02-15T11:31:49;38;37;
77974;PMS5003;67164;51.202;0.278;2023-02-15T11:34:15;41;38;
77974;PMS5003;67164;51.202;0.278;2023-02-15T11:36:40;41;40;
77974;PMS5003;67164;51.202;0.278;2023-02-15T11:39:05;41;40;
77974;PMS5003;67164;51.202;0.278;2023-02-15T11:41:31;44;39;
77974;PMS5003;67164;51.202;0.278;2023-02-15T11:43:56;48;48;
77974;PMS5003;67164;51.202;0.278;2023-02-15T11:46:20;43;42;
77974;PMS5003;67164;51.202;0.278;2023-02-15T11:48:49;56;53;
77974;PMS5003;67164;51.202;0.278;2023-02-15T11:51:12;50;45;
77974;PMS5003;67164;51.202;0.278;2023-02-15T11:53:37;50;48;
77974;PMS5003;67164;51.202;0.278;2023-02-15T11:56:02;51;46;
77974;PMS5003;67164;51.202;0.278;2023-02-15T11:58:29;44;42;
77974;PMS5003;67164;51.202;0.278;2023-02-15T12:00:54;39;39;
77974;PMS5003;67164;51.202;0.278;2023-02-15T12:03:19;43;40;
77974;PMS5003;67164;51.202;0.278;2023-02-15T12:05:44;45;38;
77974;PMS5003;67164;51.202;0.278;2023-02-15T12:08:12;51;41;
77974;PMS5003;67164;51.202;0.278;2023-02-15T12:10:34;54;45;
77974;PMS5003;67164;51.202;0.278;2023-02-15T12:15:29;44;42;
77974;PMS5003;67164;51.202;0.278;2023-02-15T12:17:50;46;45;
77974;PMS5003;67164;51.202;0.278;2023-02-15T12:22:45;76;70;
77974;PMS5003;67164;51.202;0.278;2023-02-15T12:27:32;59;54;
77974;PMS5003;67164;51.202;0.278;2023-02-15T12:29:58;66;59;
77974;PMS5003;67164;51.202;0.278;2023-02-15T12:32:24;56;53;
77974;PMS5003;67164;51.202;0.278;2023-02-15T12:34:54;43;43;
77974;PMS5003;67164;51.202;0.278;2023-02-15T12:37:15;48;47;
77974;PMS5003;67164;51.202;0.278;2023-02-15T12:39:39;44;43;
77974;PMS5003;67164;51.202;0.278;2023-02-15T12:42:05;52;49;
77974;PMS5003;67164;51.202;0.278;2023-02-15T12:44:31;53;46;
77974;PMS5003;67164;51.202;0.278;2023-02-15T12:46:56;48;44;
77974;PMS5003;67164;51.202;0.278;2023-02-15T12:49:21;58;51;
77974;PMS5003;67164;51.202;0.278;2023-02-15T12:51:48;50;49;
77974;PMS5003;67164;51.202;0.278;2023-02-15T12:54:20;51;47;
77974;PMS5003;67164;51.202;0.278;2023-02-15T12:56:38;54;51;
77974;PMS5003;67164;51.202;0.278;2023-02-15T12:59:04;45;42;
77974;PMS5003;67164;51.202;0.278;2023-02-15T13:01:30;44;42;
77974;PMS5003;67164;51.202;0.278;2023-02-15T13:03:56;49;43;
77974;PMS5003;67164;51.202;0.278;2023-02-15T13:06:20;53;46;
77974;PMS5003;67164;51.202;0.278;2023-02-15T13:08:46;49;48;
77974;PMS5003;67164;51.202;0.278;2023-02-15T13:11:11;53;50;
77974;PMS5003;67164;51.202;0.278;2023-02-15T13:13:38;48;42;
77974;PMS5003;67164;51.202;0.278;2023-02-15T13:16:02;48;47;
77974;PMS5003;67164;51.202;0.278;2023-02-15T13:18:29;44;40;
77974;PMS5003;67164;51.202;0.278;2023-02-15T13:20:53;45;37;
77974;PMS5003;67164;51.202;0.278;2023-02-15T13:23:22;46;45;
77974;PMS5003;67164;51.202;0.278;2023-02-15T13:25:45;47;41;
77974;PMS5003;67164;51.202;0.278;2023-02-15T13:28:10;40;38;
77974;PMS5003;67164;51.202;0.278;2023-02-15T13:30:42;43;38;
77974;PMS5003;67164;51.202;0.278;2023-02-15T13:33:01;45;40;
77974;PMS5003;67164;51.202;0.278;2023-02-15T13:35:26;38;37;
77974;PMS5003;67164;51.202;0.278;2023-02-15T13:37:55;50;43;
77974;PMS5003;67164;51.202;0.278;2023-02-15T13:40:18;48;45;
77974;PMS5003;67164;51.202;0.278;2023-02-15T13:42:44;48;41;
77974;PMS5003;67164;51.202;0.278;2023-02-15T13:45:10;43;41;
77974;PMS5003;67164;51.202;0.278;2023-02-15T13:47:36;45;41;
77974;PMS5003;67164;51.202;0.278;2023-02-15T13:50:03;49;39;
77974;PMS5003;67164;51.202;0.278;2023-02-15T13:52:24;40;35;
77974;PMS5003;67164;51.202;0.278;2023-02-15T13:54:53;45;34;
77974;PMS5003;67164;51.202;0.278;2023-02-15T13:57:20;41;35;
77974;PMS5003;67164;51.202;0.278;2023-02-15T13:59:44;46;43;
77974;PMS5003;67164;51.202;0.278;2023-02-15T14:04:37;53;46;
77974;PMS5003;67164;51.202;0.278;2023-02-15T14:07:05;58;44;
77974;PMS5003;67164;51.202;0.278;2023-02-15T14:09:26;48;42;
77974;PMS5003;67164;51.202;0.278;2023-02-15T14:11:50;52;43;
77974;PMS5003;67164;51.202;0.278;2023-02-15T14:16:41;46;36;
77974;PMS5003;67164;51.202;0.278;2023-02-15T14:19:09;47;39;
77974;PMS5003;67164;51.202;0.278;2023-02-15T14:21:30;42;34;
77974;PMS5003;67164;51.202;0.278;2023-02-15T14:24:03;34;33;
77974;PMS5003;67164;51.202;0.278;2023-02-15T14:26:21;48;42;
77974;PMS5003;67164;51.202;0.278;2023-02-15T14:28:47;59;44;
77974;PMS5003;67164;51.202;0.278;2023-02-15T14:31:12;125;92;
77974;PMS5003;67164;51.202;0.278;2023-02-15T14:33:37;181;131;
77974;PMS5003;67164;51.202;0.278;2023-02-15T14:36:03;306;238;
77974;PMS5003;67164;51.202;0.278;2023-02-15T14:38:33;335;261;
77974;PMS5003;67164;51.202;0.278;2023-02-15T14:40:54;344;272;
77974;PMS5003;67164;51.202;0.278;2023-02-15T14:43:21;353;261;
77974;PMS5003;67164;51.202;0.278;2023-02-15T14:45:47;323;251;
77974;PMS5003;67164;51.202;0.278;2023-02-15T14:48:10;305;238;
77974;PMS5003;67164;51.202;0.278;2023-02-15T14:50:39;298;238;
77974;PMS5003;67164;51.202;0.278;2023-02-15T14:57:55;219;184;
77974;PMS5003;67164;51.202;0.278;2023-02-15T15:02:42;213;159;
77974;PMS5003;67164;51.202;0.278;2023-02-15T15:05:07;193;145;
77974;PMS5003;67164;51.202;0.278;2023-02-15T15:07:37;164;134;
77974;PMS5003;67164;51.202;0.278;2023-02-15T15:09:58;166;126;
77974;PMS5003;67164;51.202;0.278;2023-02-15T15:14:48;143;115;
77974;PMS5003;67164;51.202;0.278;2023-02-15T15:17:41;126;110;
77974;PMS5003;67164;51.202;0.278;2023-02-15T15:22:12;112;89;
77974;PMS5003;67164;51.202;0.278;2023-02-15T15:31:47;71;59;
77974;PMS5003;67164;51.202;0.278;2023-02-15T15:34:19;69;56;
77974;PMS5003;67164;51.202;0.278;2023-02-15T15:36:41;53;50;
77974;PMS5003;67164;51.202;0.278;2023-02-15T15:39:04;69;49;
77974;PMS5003;67164;51.202;0.278;2023-02-15T15:41:30;51;46;
77974;PMS5003;67164;51.202;0.278;2023-02-15T15:43:59;47;42;
77974;PMS5003;67164;51.202;0.278;2023-02-15T15:46:25;49;39;
77974;PMS5003;67164;51.202;0.278;2023-02-15T15:48:44;44;41;
77974;PMS5003;67164;51.202;0.278;2023-02-15T15:51:11;42;36;
77974;PMS5003;67164;51.202;0.278;2023-02-15T15:53:38;43;34;
77974;PMS5003;67164;51.202;0.278;2023-02-15T15:56:03;35;29;
77974;PMS5003;67164;51.202;0.278;2023-02-15T15:58:27;43;33;
77974;PMS5003;67164;51.202;0.278;2023-02-15T16:00:52;34;27;
77974;PMS5003;67164;51.202;0.278;2023-02-15T16:03:20;31;28;
77974;PMS5003;67164;51.202;0.278;2023-02-15T16:05:43;25;25;
77974;PMS5003;67164;51.202;0.278;2023-02-15T16:08:09;26;23;
77974;PMS5003;67164;51.202;0.278;2023-02-15T16:10:35;27;26;
77974;PMS5003;67164;51.202;0.278;2023-02-15T16:13:00;27;24;
77974;PMS5003;67164;51.202;0.278;2023-02-15T16:15:34;27;24;
77974;PMS5003;67164;51.202;0.278;2023-02-15T16:17:51;24;21;
77974;PMS5003;67164;51.202;0.278;2023-02-15T16:20:17;28;22;
77974;PMS5003;67164;51.202;0.278;2023-02-15T16:22:42;23;23;
77974;PMS5003;67164;51.202;0.278;2023-02-15T16:25:18;27;23;
77974;PMS5003;67164;51.202;0.278;2023-02-15T16:27:34;24;21;
77974;PMS5003;67164;51.202;0.278;2023-02-15T16:32:25;24;20;
77974;PMS5003;67164;51.202;0.278;2023-02-15T16:34:51;18;18;
77974;PMS5003;67164;51.202;0.278;2023-02-15T16:37:15;24;23;
77974;PMS5003;67164;51.202;0.278;2023-02-15T16:39:41;22;20;
77974;PMS5003;67164;51.202;0.278;2023-02-15T16:42:06;21;19;
77974;PMS5003;67164;51.202;0.278;2023-02-15T16:44:31;20;17;
77974;PMS5003;67164;51.202;0.278;2023-02-15T16:46:57;25;19;
77974;PMS5003;67164;51.202;0.278;2023-02-15T16:49:24;20;17;
77974;PMS5003;67164;51.202;0.278;2023-02-15T16:51:54;21;19;
77974;PMS5003;67164;51.202;0.278;2023-02-15T16:54:17;30;20;